Miles Pond, Vermont
Current Conditions -  °F | °C
As of 1:35 PM on Sunday 23 Nov 2014 (Local Time) from KCDA Reporting Station
Overcast Overcast  
Wind Chill: 40°   Ceiling: 1600
Heat Index: 40°   Visibility: 7mi
Dew Point: 37°   Wind: 3mph
Humidity: 89%   Direction: 90°E
Pressure: 30.07"   Gusts: NA
Location:  44.5627°N, 71.7775°W
Report Text: KCDA 231835Z AUTO 09003KT 7SM OVC016 04/03 A3007 RMK AO2 T00430026
Loading
Personal Weather Stations






























Interactive Weather Map New forecast layout! Learn more

10-Day Weather Forecast

Advertisements
Track Severe Weather on mobile